Ana Sayfa
METAR-TAF:

METAR-TAF

Havaalanları :

Eskişehir Anadolu Havalimanı

Eskişehir, Türkiye

Enlem: 39-48-36N, Boylam: 30-31-10E, yükseklik: 789 m

Güncel hava durumu gözlemi

Rapor saat 22:50 UTC de 56 dakika önce yapıldı.
Rüzgar doğudan 5 kt, doğu/kuzeydoğu ve güneydoğu arasında değişken
Sıcaklık 6°C
Nem 81%
Basınç 1007 hPa
Görüş mesafesi 10 km veya daha fazla
3500 ft yükseklikte parçalı bulutlu
10000 ft yükseklikte parçalı çok bulutlu

METAR: LTBY 232250Z 10005KT 070V130 9999 SCT035 BKN100 06/03 Q1007

Saat: 02:46 (23:46 UTC)

Tahmin

Rapor saat 22:40 UTC de 1 saat ve 6 dakika önce yapıldı.
Ayın 24'si saat 00 UTC'den ayın 24'si saat 09 UTC'ye kadar geçerli Tahmin
Rüzgar güneydoğudan 7 kt
Görüş mesafesi 10 km veya daha fazla
3500 ft yükseklikte parçalı bulutlu
10000 ft yükseklikte parçalı çok bulutlu
Geçici
ayın 24'si saat 00 UTC'den ayın 24'si saat 04 UTC'ye kadar
hafif yağmur

TAF: LTBY 232240Z 2400/2409 14007KT 9999 SCT035 BKN100 TEMPO 2400/2404 -RA

4.000'den fazla havaalanı için hava durumu gözlemleri ve tahminleri (METAR ve TAF raporları).

Kullanılabilir istasyonlar harita üzerinde sarı ve kırmızı noktalarla gösterilir.

İstasyonun adını görmek için fareyi noktanın üzerinde gezdirin.

Sonrasında hava gözlem ve tahminlerini görmek için tıklayın.

Haritayı değiştirmek için: yaklaştırmak için siyah artı işaretli yeşil düğmeye ve uzaklaştırmak için de eksi işaretli düğmeye hızla tıklayın; bitişik haritalar için yeşil okları kullanın.


METAR-TAF: